sensor_id;sensor_type;location;lat;lon;timestamp;P1;durP1;ratioP1;P2;durP2;ratioP2
19024;SDS011;9645;51.448;6.260;2022-12-11T00:02:27;73.55;;;15.40;;
19024;SDS011;9645;51.448;6.260;2022-12-11T00:04:54;58.53;;;15.40;;
19024;SDS011;9645;51.448;6.260;2022-12-11T00:07:21;78.20;;;15.57;;
19024;SDS011;9645;51.448;6.260;2022-12-11T00:09:48;78.25;;;16.98;;
19024;SDS011;9645;51.448;6.260;2022-12-11T00:12:15;74.28;;;15.65;;
19024;SDS011;9645;51.448;6.260;2022-12-11T00:14:42;85.68;;;16.88;;
19024;SDS011;9645;51.448;6.260;2022-12-11T00:17:11;69.25;;;16.25;;
19024;SDS011;9645;51.448;6.260;2022-12-11T00:19:38;82.78;;;16.40;;
19024;SDS011;9645;51.448;6.260;2022-12-11T00:22:05;90.70;;;16.48;;
19024;SDS011;9645;51.448;6.260;2022-12-11T00:24:32;79.03;;;14.98;;
19024;SDS011;9645;51.448;6.260;2022-12-11T00:26:59;70.60;;;15.50;;
19024;SDS011;9645;51.448;6.260;2022-12-11T00:29:27;61.80;;;14.00;;
19024;SDS011;9645;51.448;6.260;2022-12-11T00:31:55;86.70;;;17.23;;
19024;SDS011;9645;51.448;6.260;2022-12-11T00:34:24;75.47;;;15.52;;
19024;SDS011;9645;51.448;6.260;2022-12-11T00:36:57;105.45;;;15.40;;
19024;SDS011;9645;51.448;6.260;2022-12-11T00:39:25;85.72;;;16.63;;
19024;SDS011;9645;51.448;6.260;2022-12-11T00:41:52;80.70;;;16.67;;
19024;SDS011;9645;51.448;6.260;2022-12-11T00:44:19;83.93;;;17.45;;
19024;SDS011;9645;51.448;6.260;2022-12-11T00:46:47;72.65;;;15.35;;
19024;SDS011;9645;51.448;6.260;2022-12-11T00:49:14;89.40;;;18.42;;
19024;SDS011;9645;51.448;6.260;2022-12-11T00:51:44;94.85;;;17.15;;
19024;SDS011;9645;51.448;6.260;2022-12-11T00:54:11;88.35;;;16.52;;
19024;SDS011;9645;51.448;6.260;2022-12-11T00:56:38;85.50;;;17.05;;
19024;SDS011;9645;51.448;6.260;2022-12-11T00:59:05;82.85;;;16.70;;
19024;SDS011;9645;51.448;6.260;2022-12-11T01:01:32;81.50;;;17.90;;
19024;SDS011;9645;51.448;6.260;2022-12-11T01:03:59;98.55;;;17.58;;
19024;SDS011;9645;51.448;6.260;2022-12-11T01:06:27;108.78;;;19.13;;
19024;SDS011;9645;51.448;6.260;2022-12-11T01:08:56;122.70;;;17.02;;
19024;SDS011;9645;51.448;6.260;2022-12-11T01:11:41;125.97;;;17.77;;
19024;SDS011;9645;51.448;6.260;2022-12-11T01:14:09;73.75;;;18.80;;
19024;SDS011;9645;51.448;6.260;2022-12-11T01:16:37;120.28;;;20.27;;
19024;SDS011;9645;51.448;6.260;2022-12-11T01:19:04;88.90;;;19.83;;
19024;SDS011;9645;51.448;6.260;2022-12-11T01:21:32;124.55;;;20.52;;
19024;SDS011;9645;51.448;6.260;2022-12-11T01:24:00;126.72;;;20.85;;
19024;SDS011;9645;51.448;6.260;2022-12-11T01:26:27;115.88;;;20.75;;
19024;SDS011;9645;51.448;6.260;2022-12-11T01:28:55;119.70;;;19.00;;
19024;SDS011;9645;51.448;6.260;2022-12-11T01:31:22;100.97;;;17.80;;
19024;SDS011;9645;51.448;6.260;2022-12-11T01:33:52;111.38;;;19.63;;
19024;SDS011;9645;51.448;6.260;2022-12-11T01:36:20;130.90;;;20.33;;
19024;SDS011;9645;51.448;6.260;2022-12-11T01:38:48;101.07;;;18.80;;
19024;SDS011;9645;51.448;6.260;2022-12-11T01:41:17;106.65;;;19.08;;
19024;SDS011;9645;51.448;6.260;2022-12-11T01:44:04;131.45;;;20.73;;
19024;SDS011;9645;51.448;6.260;2022-12-11T01:46:34;82.15;;;16.13;;
19024;SDS011;9645;51.448;6.260;2022-12-11T01:49:02;106.90;;;20.63;;
19024;SDS011;9645;51.448;6.260;2022-12-11T01:51:33;105.28;;;17.77;;
19024;SDS011;9645;51.448;6.260;2022-12-11T01:54:05;93.10;;;18.73;;
19024;SDS011;9645;51.448;6.260;2022-12-11T01:56:37;113.75;;;20.48;;
19024;SDS011;9645;51.448;6.260;2022-12-11T01:59:07;101.00;;;18.13;;
19024;SDS011;9645;51.448;6.260;2022-12-11T02:01:36;104.43;;;16.73;;
19024;SDS011;9645;51.448;6.260;2022-12-11T02:04:06;86.82;;;18.92;;
19024;SDS011;9645;51.448;6.260;2022-12-11T02:06:36;113.05;;;19.25;;
19024;SDS011;9645;51.448;6.260;2022-12-11T02:09:05;111.80;;;20.63;;
19024;SDS011;9645;51.448;6.260;2022-12-11T02:11:40;88.18;;;18.75;;
19024;SDS011;9645;51.448;6.260;2022-12-11T02:14:26;112.05;;;19.08;;
19024;SDS011;9645;51.448;6.260;2022-12-11T02:17:00;90.43;;;16.70;;
19024;SDS011;9645;51.448;6.260;2022-12-11T02:19:43;65.88;;;14.88;;
19024;SDS011;9645;51.448;6.260;2022-12-11T02:22:18;107.95;;;17.40;;
19024;SDS011;9645;51.448;6.260;2022-12-11T02:24:56;88.45;;;17.02;;
19024;SDS011;9645;51.448;6.260;2022-12-11T02:27:34;88.63;;;18.70;;
19024;SDS011;9645;51.448;6.260;2022-12-11T02:30:08;108.47;;;18.73;;
19024;SDS011;9645;51.448;6.260;2022-12-11T02:32:38;86.50;;;17.90;;
19024;SDS011;9645;51.448;6.260;2022-12-11T02:35:11;74.25;;;15.88;;
19024;SDS011;9645;51.448;6.260;2022-12-11T02:37:42;88.45;;;18.08;;
19024;SDS011;9645;51.448;6.260;2022-12-11T02:40:12;91.28;;;17.40;;
19024;SDS011;9645;51.448;6.260;2022-12-11T02:42:43;105.18;;;18.98;;
19024;SDS011;9645;51.448;6.260;2022-12-11T02:45:15;87.45;;;18.77;;
19024;SDS011;9645;51.448;6.260;2022-12-11T02:47:44;83.30;;;17.98;;
19024;SDS011;9645;51.448;6.260;2022-12-11T02:50:15;103.40;;;20.25;;
19024;SDS011;9645;51.448;6.260;2022-12-11T02:52:46;83.88;;;18.15;;
19024;SDS011;9645;51.448;6.260;2022-12-11T02:55:15;78.80;;;16.67;;
19024;SDS011;9645;51.448;6.260;2022-12-11T02:57:44;84.25;;;17.50;;
19024;SDS011;9645;51.448;6.260;2022-12-11T03:00:15;82.38;;;19.05;;
19024;SDS011;9645;51.448;6.260;2022-12-11T03:02:43;98.40;;;17.73;;
19024;SDS011;9645;51.448;6.260;2022-12-11T03:05:11;75.13;;;17.55;;
19024;SDS011;9645;51.448;6.260;2022-12-11T03:07:40;65.25;;;17.80;;
19024;SDS011;9645;51.448;6.260;2022-12-11T03:10:09;78.28;;;17.63;;
19024;SDS011;9645;51.448;6.260;2022-12-11T03:12:39;91.28;;;18.35;;
19024;SDS011;9645;51.448;6.260;2022-12-11T03:15:12;86.18;;;17.90;;
19024;SDS011;9645;51.448;6.260;2022-12-11T03:17:45;90.28;;;19.75;;
19024;SDS011;9645;51.448;6.260;2022-12-11T03:20:21;86.57;;;17.73;;
19024;SDS011;9645;51.448;6.260;2022-12-11T03:23:00;75.43;;;18.75;;
19024;SDS011;9645;51.448;6.260;2022-12-11T03:25:35;67.97;;;14.95;;
19024;SDS011;9645;51.448;6.260;2022-12-11T03:28:10;88.38;;;17.70;;
19024;SDS011;9645;51.448;6.260;2022-12-11T03:30:41;69.47;;;17.27;;
19024;SDS011;9645;51.448;6.260;2022-12-11T03:33:12;73.25;;;16.30;;
19024;SDS011;9645;51.448;6.260;2022-12-11T03:35:43;81.28;;;17.48;;
19024;SDS011;9645;51.448;6.260;2022-12-11T03:38:14;81.75;;;18.23;;
19024;SDS011;9645;51.448;6.260;2022-12-11T03:40:45;62.83;;;16.83;;
19024;SDS011;9645;51.448;6.260;2022-12-11T03:43:16;71.80;;;16.77;;
19024;SDS011;9645;51.448;6.260;2022-12-11T03:45:46;73.82;;;17.50;;
19024;SDS011;9645;51.448;6.260;2022-12-11T03:48:15;65.55;;;17.05;;
19024;SDS011;9645;51.448;6.260;2022-12-11T03:50:43;66.45;;;15.20;;
19024;SDS011;9645;51.448;6.260;2022-12-11T03:53:12;59.65;;;15.52;;
19024;SDS011;9645;51.448;6.260;2022-12-11T03:55:40;62.35;;;15.43;;
19024;SDS011;9645;51.448;6.260;2022-12-11T03:58:08;67.88;;;17.33;;
19024;SDS011;9645;51.448;6.260;2022-12-11T04:00:35;66.72;;;15.50;;
19024;SDS011;9645;51.448;6.260;2022-12-11T04:03:04;63.88;;;16.67;;
19024;SDS011;9645;51.448;6.260;2022-12-11T04:05:40;54.30;;;14.80;;
19024;SDS011;9645;51.448;6.260;2022-12-11T04:08:08;79.93;;;17.67;;
19024;SDS011;9645;51.448;6.260;2022-12-11T04:10:36;57.03;;;16.50;;
19024;SDS011;9645;51.448;6.260;2022-12-11T04:13:03;69.63;;;16.27;;
19024;SDS011;9645;51.448;6.260;2022-12-11T04:15:30;50.55;;;14.02;;
19024;SDS011;9645;51.448;6.260;2022-12-11T04:17:56;69.45;;;15.68;;
19024;SDS011;9645;51.448;6.260;2022-12-11T04:20:43;77.57;;;16.63;;
19024;SDS011;9645;51.448;6.260;2022-12-11T04:23:27;63.78;;;15.82;;
19024;SDS011;9645;51.448;6.260;2022-12-11T04:26:13;57.90;;;15.15;;
19024;SDS011;9645;51.448;6.260;2022-12-11T04:28:42;57.20;;;14.73;;
19024;SDS011;9645;51.448;6.260;2022-12-11T04:31:10;67.25;;;16.13;;
19024;SDS011;9645;51.448;6.260;2022-12-11T04:33:38;56.72;;;16.17;;
19024;SDS011;9645;51.448;6.260;2022-12-11T04:36:07;67.80;;;16.20;;
19024;SDS011;9645;51.448;6.260;2022-12-11T04:38:35;57.22;;;15.43;;
19024;SDS011;9645;51.448;6.260;2022-12-11T04:41:06;56.47;;;14.88;;
19024;SDS011;9645;51.448;6.260;2022-12-11T04:43:34;57.92;;;15.13;;
19024;SDS011;9645;51.448;6.260;2022-12-11T04:46:02;72.75;;;15.13;;
19024;SDS011;9645;51.448;6.260;2022-12-11T04:48:30;66.63;;;15.25;;
19024;SDS011;9645;51.448;6.260;2022-12-11T04:50:57;54.95;;;14.70;;
19024;SDS011;9645;51.448;6.260;2022-12-11T04:53:27;70.63;;;15.20;;
19024;SDS011;9645;51.448;6.260;2022-12-11T04:55:54;62.67;;;14.60;;
19024;SDS011;9645;51.448;6.260;2022-12-11T04:58:21;67.07;;;15.88;;
19024;SDS011;9645;51.448;6.260;2022-12-11T05:00:49;60.25;;;15.52;;
19024;SDS011;9645;51.448;6.260;2022-12-11T05:03:16;77.97;;;17.00;;
19024;SDS011;9645;51.448;6.260;2022-12-11T05:05:46;56.80;;;15.05;;
19024;SDS011;9645;51.448;6.260;2022-12-11T05:08:13;60.25;;;16.35;;
19024;SDS011;9645;51.448;6.260;2022-12-11T05:10:42;65.10;;;16.08;;
19024;SDS011;9645;51.448;6.260;2022-12-11T05:13:09;64.25;;;16.27;;
19024;SDS011;9645;51.448;6.260;2022-12-11T05:15:37;56.17;;;15.35;;
19024;SDS011;9645;51.448;6.260;2022-12-11T05:18:05;64.03;;;16.35;;
19024;SDS011;9645;51.448;6.260;2022-12-11T05:20:32;66.63;;;15.73;;
19024;SDS011;9645;51.448;6.260;2022-12-11T05:22:59;65.03;;;16.05;;
19024;SDS011;9645;51.448;6.260;2022-12-11T05:25:26;79.72;;;16.77;;
19024;SDS011;9645;51.448;6.260;2022-12-11T05:27:55;61.47;;;15.57;;
19024;SDS011;9645;51.448;6.260;2022-12-11T05:30:24;70.40;;;16.83;;
19024;SDS011;9645;51.448;6.260;2022-12-11T05:32:51;68.40;;;17.85;;
19024;SDS011;9645;51.448;6.260;2022-12-11T05:35:18;65.70;;;16.70;;
19024;SDS011;9645;51.448;6.260;2022-12-11T05:37:45;69.07;;;16.95;;
19024;SDS011;9645;51.448;6.260;2022-12-11T05:40:12;69.10;;;16.35;;
19024;SDS011;9645;51.448;6.260;2022-12-11T05:42:40;76.63;;;16.48;;
19024;SDS011;9645;51.448;6.260;2022-12-11T05:45:08;59.83;;;16.70;;
19024;SDS011;9645;51.448;6.260;2022-12-11T05:47:36;60.50;;;15.90;;
19024;SDS011;9645;51.448;6.260;2022-12-11T05:50:03;60.92;;;15.95;;
19024;SDS011;9645;51.448;6.260;2022-12-11T05:52:30;63.08;;;15.73;;
19024;SDS011;9645;51.448;6.260;2022-12-11T05:54:58;66.53;;;16.08;;
19024;SDS011;9645;51.448;6.260;2022-12-11T05:57:25;55.20;;;14.48;;
19024;SDS011;9645;51.448;6.260;2022-12-11T05:59:52;54.85;;;14.77;;
19024;SDS011;9645;51.448;6.260;2022-12-11T06:02:20;60.55;;;15.00;;
19024;SDS011;9645;51.448;6.260;2022-12-11T06:04:47;56.03;;;14.10;;
19024;SDS011;9645;51.448;6.260;2022-12-11T06:07:14;55.67;;;15.25;;
19024;SDS011;9645;51.448;6.260;2022-12-11T06:09:42;47.42;;;14.77;;
19024;SDS011;9645;51.448;6.260;2022-12-11T06:12:09;67.10;;;16.50;;
19024;SDS011;9645;51.448;6.260;2022-12-11T06:14:36;52.08;;;14.88;;
19024;SDS011;9645;51.448;6.260;2022-12-11T06:17:05;58.45;;;14.80;;
19024;SDS011;9645;51.448;6.260;2022-12-11T06:19:34;62.53;;;14.90;;
19024;SDS011;9645;51.448;6.260;2022-12-11T06:22:01;49.08;;;14.05;;
19024;SDS011;9645;51.448;6.260;2022-12-11T06:24:28;56.53;;;14.68;;
19024;SDS011;9645;51.448;6.260;2022-12-11T06:26:54;54.72;;;14.20;;
19024;SDS011;9645;51.448;6.260;2022-12-11T06:29:22;53.88;;;16.35;;
19024;SDS011;9645;51.448;6.260;2022-12-11T06:31:49;52.85;;;14.38;;
19024;SDS011;9645;51.448;6.260;2022-12-11T06:34:16;63.13;;;14.02;;
19024;SDS011;9645;51.448;6.260;2022-12-11T06:36:45;63.42;;;14.90;;
19024;SDS011;9645;51.448;6.260;2022-12-11T06:39:11;53.80;;;15.70;;
19024;SDS011;9645;51.448;6.260;2022-12-11T06:41:38;48.30;;;14.05;;
19024;SDS011;9645;51.448;6.260;2022-12-11T06:44:06;56.55;;;12.95;;
19024;SDS011;9645;51.448;6.260;2022-12-11T06:46:33;53.13;;;13.40;;
19024;SDS011;9645;51.448;6.260;2022-12-11T06:49:00;51.80;;;12.98;;
19024;SDS011;9645;51.448;6.260;2022-12-11T06:51:30;57.08;;;15.30;;
19024;SDS011;9645;51.448;6.260;2022-12-11T06:53:58;54.17;;;13.43;;
19024;SDS011;9645;51.448;6.260;2022-12-11T06:56:25;41.75;;;12.82;;
19024;SDS011;9645;51.448;6.260;2022-12-11T06:58:52;40.13;;;12.32;;
19024;SDS011;9645;51.448;6.260;2022-12-11T07:01:21;38.72;;;11.90;;
19024;SDS011;9645;51.448;6.260;2022-12-11T07:03:51;49.35;;;13.00;;
19024;SDS011;9645;51.448;6.260;2022-12-11T07:06:18;58.20;;;13.75;;
19024;SDS011;9645;51.448;6.260;2022-12-11T07:08:46;54.70;;;14.18;;
19024;SDS011;9645;51.448;6.260;2022-12-11T07:11:14;56.47;;;15.60;;
19024;SDS011;9645;51.448;6.260;2022-12-11T07:13:43;39.70;;;11.75;;
19024;SDS011;9645;51.448;6.260;2022-12-11T07:16:10;41.50;;;11.30;;
19024;SDS011;9645;51.448;6.260;2022-12-11T07:18:39;40.05;;;10.15;;
19024;SDS011;9645;51.448;6.260;2022-12-11T07:21:08;32.08;;;10.20;;
19024;SDS011;9645;51.448;6.260;2022-12-11T07:23:37;31.65;;;10.75;;
19024;SDS011;9645;51.448;6.260;2022-12-11T07:26:05;38.97;;;10.40;;
19024;SDS011;9645;51.448;6.260;2022-12-11T07:28:34;39.03;;;11.38;;
19024;SDS011;9645;51.448;6.260;2022-12-11T07:31:03;32.13;;;10.48;;
19024;SDS011;9645;51.448;6.260;2022-12-11T07:33:31;33.67;;;10.43;;
19024;SDS011;9645;51.448;6.260;2022-12-11T07:35:59;36.55;;;10.05;;
19024;SDS011;9645;51.448;6.260;2022-12-11T07:38:28;29.95;;;10.30;;
19024;SDS011;9645;51.448;6.260;2022-12-11T07:40:55;34.70;;;10.80;;
19024;SDS011;9645;51.448;6.260;2022-12-11T07:43:22;29.83;;;9.75;;
19024;SDS011;9645;51.448;6.260;2022-12-11T07:45:51;41.60;;;11.00;;
19024;SDS011;9645;51.448;6.260;2022-12-11T07:48:18;43.28;;;11.25;;
19024;SDS011;9645;51.448;6.260;2022-12-11T07:50:45;41.17;;;12.05;;
19024;SDS011;9645;51.448;6.260;2022-12-11T07:53:12;35.17;;;11.20;;
19024;SDS011;9645;51.448;6.260;2022-12-11T07:55:39;38.60;;;11.23;;
19024;SDS011;9645;51.448;6.260;2022-12-11T07:58:06;32.17;;;9.93;;
19024;SDS011;9645;51.448;6.260;2022-12-11T08:00:33;39.20;;;10.88;;
19024;SDS011;9645;51.448;6.260;2022-12-11T08:03:02;35.95;;;10.32;;
19024;SDS011;9645;51.448;6.260;2022-12-11T08:05:29;34.92;;;10.25;;
19024;SDS011;9645;51.448;6.260;2022-12-11T08:07:56;29.02;;;9.93;;
19024;SDS011;9645;51.448;6.260;2022-12-11T08:10:23;39.03;;;11.10;;
19024;SDS011;9645;51.448;6.260;2022-12-11T08:12:51;31.80;;;9.98;;
19024;SDS011;9645;51.448;6.260;2022-12-11T08:15:18;37.25;;;9.23;;
19024;SDS011;9645;51.448;6.260;2022-12-11T08:17:45;35.28;;;8.32;;
19024;SDS011;9645;51.448;6.260;2022-12-11T08:20:13;31.02;;;10.38;;
19024;SDS011;9645;51.448;6.260;2022-12-11T08:22:40;30.02;;;10.35;;
19024;SDS011;9645;51.448;6.260;2022-12-11T08:25:08;30.75;;;9.40;;
19024;SDS011;9645;51.448;6.260;2022-12-11T08:27:35;35.30;;;10.95;;
19024;SDS011;9645;51.448;6.260;2022-12-11T08:30:02;32.03;;;8.82;;
19024;SDS011;9645;51.448;6.260;2022-12-11T08:32:30;26.23;;;8.63;;
19024;SDS011;9645;51.448;6.260;2022-12-11T08:34:57;30.23;;;9.90;;
19024;SDS011;9645;51.448;6.260;2022-12-11T08:37:25;29.98;;;10.48;;
19024;SDS011;9645;51.448;6.260;2022-12-11T08:39:53;29.02;;;10.30;;
19024;SDS011;9645;51.448;6.260;2022-12-11T08:42:21;34.03;;;10.35;;
19024;SDS011;9645;51.448;6.260;2022-12-11T08:44:48;37.17;;;10.80;;
19024;SDS011;9645;51.448;6.260;2022-12-11T08:47:15;26.55;;;10.38;;
19024;SDS011;9645;51.448;6.260;2022-12-11T08:49:42;37.75;;;12.40;;
19024;SDS011;9645;51.448;6.260;2022-12-11T08:52:09;33.88;;;10.05;;
19024;SDS011;9645;51.448;6.260;2022-12-11T08:54:38;29.42;;;10.32;;
19024;SDS011;9645;51.448;6.260;2022-12-11T08:57:05;40.58;;;11.18;;
19024;SDS011;9645;51.448;6.260;2022-12-11T08:59:32;37.47;;;10.35;;
19024;SDS011;9645;51.448;6.260;2022-12-11T09:01:59;37.05;;;10.55;;
19024;SDS011;9645;51.448;6.260;2022-12-11T09:04:26;37.13;;;11.65;;
19024;SDS011;9645;51.448;6.260;2022-12-11T09:06:53;34.05;;;11.50;;
19024;SDS011;9645;51.448;6.260;2022-12-11T09:09:21;34.58;;;11.93;;
19024;SDS011;9645;51.448;6.260;2022-12-11T09:11:49;35.53;;;11.02;;
19024;SDS011;9645;51.448;6.260;2022-12-11T09:14:18;26.55;;;9.75;;
19024;SDS011;9645;51.448;6.260;2022-12-11T09:16:46;33.72;;;11.55;;
19024;SDS011;9645;51.448;6.260;2022-12-11T09:19:16;35.35;;;10.38;;
19024;SDS011;9645;51.448;6.260;2022-12-11T09:21:43;36.40;;;12.32;;
19024;SDS011;9645;51.448;6.260;2022-12-11T09:24:10;45.45;;;13.52;;
19024;SDS011;9645;51.448;6.260;2022-12-11T09:26:39;38.13;;;11.88;;
19024;SDS011;9645;51.448;6.260;2022-12-11T09:29:11;30.75;;;10.90;;
19024;SDS011;9645;51.448;6.260;2022-12-11T09:31:38;37.90;;;11.98;;
19024;SDS011;9645;51.448;6.260;2022-12-11T09:34:06;52.95;;;14.18;;
19024;SDS011;9645;51.448;6.260;2022-12-11T09:36:36;50.35;;;14.77;;
19024;SDS011;9645;51.448;6.260;2022-12-11T09:39:05;45.35;;;13.02;;
19024;SDS011;9645;51.448;6.260;2022-12-11T09:41:35;56.22;;;16.45;;
19024;SDS011;9645;51.448;6.260;2022-12-11T09:44:14;57.58;;;16.30;;
19024;SDS011;9645;51.448;6.260;2022-12-11T09:46:49;41.13;;;13.45;;
19024;SDS011;9645;51.448;6.260;2022-12-11T09:49:22;36.88;;;9.98;;
19024;SDS011;9645;51.448;6.260;2022-12-11T09:51:57;28.63;;;9.95;;
19024;SDS011;9645;51.448;6.260;2022-12-11T09:54:31;27.52;;;9.63;;
19024;SDS011;9645;51.448;6.260;2022-12-11T09:57:02;26.02;;;9.65;;
19024;SDS011;9645;51.448;6.260;2022-12-11T09:59:43;25.85;;;9.52;;
19024;SDS011;9645;51.448;6.260;2022-12-11T10:02:26;30.23;;;10.27;;
19024;SDS011;9645;51.448;6.260;2022-12-11T10:05:03;45.30;;;10.18;;
19024;SDS011;9645;51.448;6.260;2022-12-11T10:07:40;29.98;;;9.88;;
19024;SDS011;9645;51.448;6.260;2022-12-11T10:10:15;34.30;;;10.27;;
19024;SDS011;9645;51.448;6.260;2022-12-11T10:12:50;34.65;;;9.80;;
19024;SDS011;9645;51.448;6.260;2022-12-11T10:15:31;28.02;;;9.98;;
19024;SDS011;9645;51.448;6.260;2022-12-11T10:18:04;25.33;;;9.35;;
19024;SDS011;9645;51.448;6.260;2022-12-11T10:20:38;29.45;;;9.57;;
19024;SDS011;9645;51.448;6.260;2022-12-11T10:23:07;26.73;;;9.35;;
19024;SDS011;9645;51.448;6.260;2022-12-11T10:25:42;28.20;;;8.55;;
19024;SDS011;9645;51.448;6.260;2022-12-11T10:28:13;23.35;;;8.70;;
19024;SDS011;9645;51.448;6.260;2022-12-11T10:30:45;26.65;;;8.85;;
19024;SDS011;9645;51.448;6.260;2022-12-11T10:33:17;34.60;;;8.90;;
19024;SDS011;9645;51.448;6.260;2022-12-11T10:35:47;26.85;;;8.23;;
19024;SDS011;9645;51.448;6.260;2022-12-11T10:38:19;28.60;;;9.30;;
19024;SDS011;9645;51.448;6.260;2022-12-11T10:40:51;28.30;;;9.85;;
19024;SDS011;9645;51.448;6.260;2022-12-11T10:43:30;32.78;;;9.20;;
19024;SDS011;9645;51.448;6.260;2022-12-11T10:46:00;26.88;;;9.05;;
19024;SDS011;9645;51.448;6.260;2022-12-11T10:48:28;27.30;;;9.20;;
19024;SDS011;9645;51.448;6.260;2022-12-11T10:50:56;24.88;;;9.75;;
19024;SDS011;9645;51.448;6.260;2022-12-11T10:53:25;25.23;;;9.13;;
19024;SDS011;9645;51.448;6.260;2022-12-11T10:55:53;35.00;;;9.57;;
19024;SDS011;9645;51.448;6.260;2022-12-11T10:58:23;29.27;;;9.63;;
19024;SDS011;9645;51.448;6.260;2022-12-11T11:01:03;30.83;;;9.25;;
19024;SDS011;9645;51.448;6.260;2022-12-11T11:03:33;31.88;;;10.88;;
19024;SDS011;9645;51.448;6.260;2022-12-11T11:06:19;33.85;;;11.05;;
19024;SDS011;9645;51.448;6.260;2022-12-11T11:08:49;31.92;;;11.65;;
19024;SDS011;9645;51.448;6.260;2022-12-11T11:11:21;31.98;;;10.35;;
19024;SDS011;9645;51.448;6.260;2022-12-11T11:13:51;35.08;;;10.68;;
19024;SDS011;9645;51.448;6.260;2022-12-11T11:16:31;32.63;;;10.90;;
19024;SDS011;9645;51.448;6.260;2022-12-11T11:19:02;34.20;;;10.65;;
19024;SDS011;9645;51.448;6.260;2022-12-11T11:21:29;35.25;;;10.60;;
19024;SDS011;9645;51.448;6.260;2022-12-11T11:23:57;38.78;;;12.38;;
19024;SDS011;9645;51.448;6.260;2022-12-11T11:26:25;31.30;;;10.63;;
19024;SDS011;9645;51.448;6.260;2022-12-11T11:28:52;31.15;;;9.90;;
19024;SDS011;9645;51.448;6.260;2022-12-11T11:31:29;36.72;;;11.70;;
19024;SDS011;9645;51.448;6.260;2022-12-11T11:33:59;30.23;;;10.40;;
19024;SDS011;9645;51.448;6.260;2022-12-11T11:36:29;36.88;;;10.60;;
19024;SDS011;9645;51.448;6.260;2022-12-11T11:39:04;31.23;;;10.20;;
19024;SDS011;9645;51.448;6.260;2022-12-11T11:41:40;35.53;;;10.48;;
19024;SDS011;9645;51.448;6.260;2022-12-11T11:44:12;29.92;;;9.70;;
19024;SDS011;9645;51.448;6.260;2022-12-11T11:46:45;26.02;;;8.85;;
19024;SDS011;9645;51.448;6.260;2022-12-11T11:49:19;33.33;;;9.68;;
19024;SDS011;9645;51.448;6.260;2022-12-11T11:51:53;31.83;;;10.75;;
19024;SDS011;9645;51.448;6.260;2022-12-11T11:54:24;29.92;;;10.27;;
19024;SDS011;9645;51.448;6.260;2022-12-11T11:56:57;22.60;;;8.15;;
19024;SDS011;9645;51.448;6.260;2022-12-11T11:59:27;27.92;;;9.30;;
19024;SDS011;9645;51.448;6.260;2022-12-11T12:01:58;28.75;;;9.25;;
19024;SDS011;9645;51.448;6.260;2022-12-11T12:04:26;32.00;;;9.25;;
19024;SDS011;9645;51.448;6.260;2022-12-11T12:07:10;26.23;;;8.13;;
19024;SDS011;9645;51.448;6.260;2022-12-11T12:09:50;34.03;;;10.52;;
19024;SDS011;9645;51.448;6.260;2022-12-11T12:12:27;25.98;;;8.73;;
19024;SDS011;9645;51.448;6.260;2022-12-11T12:15:08;28.85;;;8.20;;
19024;SDS011;9645;51.448;6.260;2022-12-11T12:17:49;29.90;;;8.48;;
19024;SDS011;9645;51.448;6.260;2022-12-11T12:20:22;24.23;;;8.55;;
19024;SDS011;9645;51.448;6.260;2022-12-11T12:25:51;27.73;;;8.85;;
19024;SDS011;9645;51.448;6.260;2022-12-11T12:28:25;19.38;;;7.13;;
19024;SDS011;9645;51.448;6.260;2022-12-11T12:31:04;20.35;;;7.63;;
19024;SDS011;9645;51.448;6.260;2022-12-11T12:33:43;21.13;;;8.15;;
19024;SDS011;9645;51.448;6.260;2022-12-11T12:36:19;18.83;;;7.50;;
19024;SDS011;9645;51.448;6.260;2022-12-11T12:38:53;29.15;;;8.35;;
19024;SDS011;9645;51.448;6.260;2022-12-11T12:41:28;21.30;;;7.40;;
19024;SDS011;9645;51.448;6.260;2022-12-11T12:44:08;17.77;;;7.40;;
19024;SDS011;9645;51.448;6.260;2022-12-11T12:46:45;18.08;;;6.65;;
19024;SDS011;9645;51.448;6.260;2022-12-11T12:49:22;24.05;;;8.77;;
19024;SDS011;9645;51.448;6.260;2022-12-11T12:52:01;20.25;;;7.88;;
19024;SDS011;9645;51.448;6.260;2022-12-11T12:54:30;24.88;;;8.32;;
19024;SDS011;9645;51.448;6.260;2022-12-11T12:57:01;24.58;;;7.95;;
19024;SDS011;9645;51.448;6.260;2022-12-11T12:59:30;25.60;;;8.15;;
19024;SDS011;9645;51.448;6.260;2022-12-11T13:01:58;24.58;;;9.05;;
19024;SDS011;9645;51.448;6.260;2022-12-11T13:04:33;25.88;;;10.00;;
19024;SDS011;9645;51.448;6.260;2022-12-11T13:07:18;33.03;;;10.02;;
19024;SDS011;9645;51.448;6.260;2022-12-11T13:09:57;26.45;;;9.35;;
19024;SDS011;9645;51.448;6.260;2022-12-11T13:12:31;24.92;;;8.27;;
19024;SDS011;9645;51.448;6.260;2022-12-11T13:20:58;26.73;;;8.27;;
19024;SDS011;9645;51.448;6.260;2022-12-11T13:23:27;28.05;;;8.35;;
19024;SDS011;9645;51.448;6.260;2022-12-11T13:25:55;27.65;;;9.32;;
19024;SDS011;9645;51.448;6.260;2022-12-11T13:28:24;24.35;;;7.55;;
19024;SDS011;9645;51.448;6.260;2022-12-11T13:31:01;21.63;;;8.73;;
19024;SDS011;9645;51.448;6.260;2022-12-11T13:33:44;26.38;;;9.82;;
19024;SDS011;9645;51.448;6.260;2022-12-11T13:36:26;25.30;;;9.32;;
19024;SDS011;9645;51.448;6.260;2022-12-11T13:38:57;25.58;;;9.02;;
19024;SDS011;9645;51.448;6.260;2022-12-11T13:41:31;21.05;;;8.60;;
19024;SDS011;9645;51.448;6.260;2022-12-11T13:44:02;27.70;;;9.15;;
19024;SDS011;9645;51.448;6.260;2022-12-11T13:46:32;26.95;;;10.25;;
19024;SDS011;9645;51.448;6.260;2022-12-11T13:49:02;24.35;;;8.95;;
19024;SDS011;9645;51.448;6.260;2022-12-11T13:51:32;24.85;;;8.30;;
19024;SDS011;9645;51.448;6.260;2022-12-11T13:54:02;25.52;;;9.32;;
19024;SDS011;9645;51.448;6.260;2022-12-11T13:56:30;23.10;;;7.82;;
19024;SDS011;9645;51.448;6.260;2022-12-11T13:58:57;28.77;;;8.80;;
19024;SDS011;9645;51.448;6.260;2022-12-11T14:01:25;22.65;;;8.25;;
19024;SDS011;9645;51.448;6.260;2022-12-11T14:03:55;26.98;;;8.27;;
19024;SDS011;9645;51.448;6.260;2022-12-11T14:06:24;22.55;;;8.15;;
19024;SDS011;9645;51.448;6.260;2022-12-11T14:08:55;23.73;;;8.05;;
19024;SDS011;9645;51.448;6.260;2022-12-11T14:11:26;25.42;;;9.48;;
19024;SDS011;9645;51.448;6.260;2022-12-11T14:13:55;25.13;;;7.97;;
19024;SDS011;9645;51.448;6.260;2022-12-11T14:16:26;22.17;;;7.80;;
19024;SDS011;9645;51.448;6.260;2022-12-11T14:18:54;28.90;;;8.10;;
19024;SDS011;9645;51.448;6.260;2022-12-11T14:21:26;24.13;;;7.75;;
19024;SDS011;9645;51.448;6.260;2022-12-11T14:23:56;25.67;;;8.73;;
19024;SDS011;9645;51.448;6.260;2022-12-11T14:26:29;26.80;;;8.82;;
19024;SDS011;9645;51.448;6.260;2022-12-11T14:29:02;25.98;;;8.27;;
19024;SDS011;9645;51.448;6.260;2022-12-11T14:31:32;22.98;;;8.05;;
19024;SDS011;9645;51.448;6.260;2022-12-11T14:34:02;24.88;;;8.40;;
19024;SDS011;9645;51.448;6.260;2022-12-11T14:36:34;24.10;;;7.38;;
19024;SDS011;9645;51.448;6.260;2022-12-11T14:39:03;23.55;;;7.78;;
19024;SDS011;9645;51.448;6.260;2022-12-11T14:41:39;29.20;;;9.10;;
19024;SDS011;9645;51.448;6.260;2022-12-11T14:44:11;23.20;;;8.60;;
19024;SDS011;9645;51.448;6.260;2022-12-11T14:46:42;19.83;;;7.53;;
19024;SDS011;9645;51.448;6.260;2022-12-11T14:49:14;21.25;;;8.10;;
19024;SDS011;9645;51.448;6.260;2022-12-11T14:51:46;21.48;;;7.55;;
19024;SDS011;9645;51.448;6.260;2022-12-11T14:54:16;19.55;;;6.88;;
19024;SDS011;9645;51.448;6.260;2022-12-11T14:56:50;22.33;;;8.10;;
19024;SDS011;9645;51.448;6.260;2022-12-11T14:59:18;19.65;;;7.28;;
19024;SDS011;9645;51.448;6.260;2022-12-11T15:01:55;20.60;;;7.32;;
19024;SDS011;9645;51.448;6.260;2022-12-11T15:04:26;19.42;;;7.68;;
19024;SDS011;9645;51.448;6.260;2022-12-11T15:06:56;24.25;;;7.22;;